sensor_id;sensor_type;location;lat;lon;timestamp;P1;durP1;ratioP1;P2;durP2;ratioP2
62911;SDS011;49111;51.028;4.218;2022-12-07T06:50:17;8.57;;;4.70;;
62911;SDS011;49111;51.028;4.218;2022-12-07T06:52:43;9.68;;;5.63;;
62911;SDS011;49111;51.028;4.218;2022-12-07T06:55:08;9.98;;;6.20;;
62911;SDS011;49111;51.028;4.218;2022-12-07T06:57:34;9.93;;;5.07;;
62911;SDS011;49111;51.028;4.218;2022-12-07T07:00:00;8.00;;;5.13;;
62911;SDS011;49111;51.028;4.218;2022-12-07T07:02:26;8.77;;;5.45;;
62911;SDS011;49111;51.028;4.218;2022-12-07T07:04:51;8.02;;;5.43;;
62911;SDS011;49111;51.028;4.218;2022-12-07T07:07:17;7.93;;;5.35;;
62911;SDS011;49111;51.028;4.218;2022-12-07T07:09:43;11.27;;;6.53;;
62911;SDS011;49111;51.028;4.218;2022-12-07T07:12:09;20.90;;;10.15;;
62911;SDS011;49111;51.028;4.218;2022-12-07T07:14:34;15.00;;;7.72;;
62911;SDS011;49111;51.028;4.218;2022-12-07T07:17:01;12.30;;;6.75;;
62911;SDS011;49111;51.028;4.218;2022-12-07T07:19:27;15.70;;;7.75;;
62911;SDS011;49111;51.028;4.218;2022-12-07T07:21:53;22.23;;;10.52;;
62911;SDS011;49111;51.028;4.218;2022-12-07T07:24:18;17.20;;;8.23;;
62911;SDS011;49111;51.028;4.218;2022-12-07T07:26:44;12.43;;;6.55;;
62911;SDS011;49111;51.028;4.218;2022-12-07T07:29:10;12.43;;;6.90;;
62911;SDS011;49111;51.028;4.218;2022-12-07T07:31:36;9.90;;;6.63;;
62911;SDS011;49111;51.028;4.218;2022-12-07T07:34:02;13.13;;;7.38;;
62911;SDS011;49111;51.028;4.218;2022-12-07T07:36:28;10.43;;;5.65;;
62911;SDS011;49111;51.028;4.218;2022-12-07T07:38:53;8.82;;;6.20;;
62911;SDS011;49111;51.028;4.218;2022-12-07T07:41:19;13.30;;;6.60;;
62911;SDS011;49111;51.028;4.218;2022-12-07T07:43:45;11.18;;;6.03;;
62911;SDS011;49111;51.028;4.218;2022-12-07T07:46:11;7.45;;;5.35;;
62911;SDS011;49111;51.028;4.218;2022-12-07T07:48:39;8.82;;;5.93;;
62911;SDS011;49111;51.028;4.218;2022-12-07T07:51:06;11.85;;;6.10;;
62911;SDS011;49111;51.028;4.218;2022-12-07T07:53:35;14.95;;;9.20;;
62911;SDS011;49111;51.028;4.218;2022-12-07T07:56:01;10.00;;;5.60;;
62911;SDS011;49111;51.028;4.218;2022-12-07T07:58:27;9.88;;;5.30;;
62911;SDS011;49111;51.028;4.218;2022-12-07T08:00:55;11.38;;;6.03;;
62911;SDS011;49111;51.028;4.218;2022-12-07T08:03:21;9.10;;;5.60;;
62911;SDS011;49111;51.028;4.218;2022-12-07T08:05:47;9.23;;;5.28;;
62911;SDS011;49111;51.028;4.218;2022-12-07T08:08:12;8.32;;;4.82;;
62911;SDS011;49111;51.028;4.218;2022-12-07T08:10:38;9.27;;;6.43;;
62911;SDS011;49111;51.028;4.218;2022-12-07T08:13:04;9.60;;;5.60;;
62911;SDS011;49111;51.028;4.218;2022-12-07T08:15:36;7.70;;;4.88;;
62911;SDS011;49111;51.028;4.218;2022-12-07T08:18:03;8.63;;;6.28;;
62911;SDS011;49111;51.028;4.218;2022-12-07T08:20:30;7.65;;;5.10;;
62911;SDS011;49111;51.028;4.218;2022-12-07T08:22:58;8.07;;;5.45;;
62911;SDS011;49111;51.028;4.218;2022-12-07T08:25:23;10.15;;;5.82;;
62911;SDS011;49111;51.028;4.218;2022-12-07T08:27:50;8.25;;;5.72;;
62911;SDS011;49111;51.028;4.218;2022-12-07T08:30:17;10.38;;;6.20;;
62911;SDS011;49111;51.028;4.218;2022-12-07T08:32:46;10.63;;;6.68;;
62911;SDS011;49111;51.028;4.218;2022-12-07T08:35:12;7.93;;;5.15;;
62911;SDS011;49111;51.028;4.218;2022-12-07T08:37:39;9.73;;;5.85;;
62911;SDS011;49111;51.028;4.218;2022-12-07T08:40:10;11.48;;;6.68;;
62911;SDS011;49111;51.028;4.218;2022-12-07T08:42:40;9.25;;;6.63;;
62911;SDS011;49111;51.028;4.218;2022-12-07T08:45:14;11.13;;;6.13;;
62911;SDS011;49111;51.028;4.218;2022-12-07T08:50:15;10.45;;;6.35;;
62911;SDS011;49111;51.028;4.218;2022-12-07T08:52:42;10.13;;;5.80;;
62911;SDS011;49111;51.028;4.218;2022-12-07T08:55:11;10.07;;;5.45;;
62911;SDS011;49111;51.028;4.218;2022-12-07T08:57:38;13.07;;;7.13;;
62911;SDS011;49111;51.028;4.218;2022-12-07T09:00:06;11.98;;;6.03;;
62911;SDS011;49111;51.028;4.218;2022-12-07T09:02:32;8.40;;;5.72;;
62911;SDS011;49111;51.028;4.218;2022-12-07T09:04:58;12.13;;;6.47;;
62911;SDS011;49111;51.028;4.218;2022-12-07T09:07:24;10.60;;;5.80;;
62911;SDS011;49111;51.028;4.218;2022-12-07T09:09:51;11.15;;;5.93;;
62911;SDS011;49111;51.028;4.218;2022-12-07T09:12:17;11.23;;;5.10;;
62911;SDS011;49111;51.028;4.218;2022-12-07T09:14:42;11.13;;;6.35;;
62911;SDS011;49111;51.028;4.218;2022-12-07T09:17:09;11.32;;;6.15;;
62911;SDS011;49111;51.028;4.218;2022-12-07T09:19:37;10.02;;;5.68;;
62911;SDS011;49111;51.028;4.218;2022-12-07T09:22:03;11.07;;;5.43;;
62911;SDS011;49111;51.028;4.218;2022-12-07T09:24:30;11.38;;;6.97;;
62911;SDS011;49111;51.028;4.218;2022-12-07T09:26:57;13.52;;;7.35;;
62911;SDS011;49111;51.028;4.218;2022-12-07T09:29:23;14.45;;;7.38;;
62911;SDS011;49111;51.028;4.218;2022-12-07T09:31:49;13.32;;;8.48;;
62911;SDS011;49111;51.028;4.218;2022-12-07T09:34:17;10.75;;;8.48;;
62911;SDS011;49111;51.028;4.218;2022-12-07T09:36:43;16.75;;;9.57;;
62911;SDS011;49111;51.028;4.218;2022-12-07T09:39:09;13.57;;;7.93;;
62911;SDS011;49111;51.028;4.218;2022-12-07T09:41:42;17.27;;;7.70;;
62911;SDS011;49111;51.028;4.218;2022-12-07T09:44:13;13.90;;;6.70;;
62911;SDS011;49111;51.028;4.218;2022-12-07T09:46:44;12.63;;;7.38;;
62911;SDS011;49111;51.028;4.218;2022-12-07T09:49:16;8.80;;;6.70;;
62911;SDS011;49111;51.028;4.218;2022-12-07T09:51:58;10.00;;;6.40;;
62911;SDS011;49111;51.028;4.218;2022-12-07T09:54:46;10.30;;;6.13;;
62911;SDS011;49111;51.028;4.218;2022-12-07T09:57:15;12.35;;;6.50;;
62911;SDS011;49111;51.028;4.218;2022-12-07T09:59:42;13.35;;;7.35;;
62911;SDS011;49111;51.028;4.218;2022-12-07T10:02:22;11.38;;;8.15;;
62911;SDS011;49111;51.028;4.218;2022-12-07T10:05:09;12.82;;;6.90;;
62911;SDS011;49111;51.028;4.218;2022-12-07T10:07:41;8.85;;;5.30;;
62911;SDS011;49111;51.028;4.218;2022-12-07T10:10:15;8.98;;;5.22;;
62911;SDS011;49111;51.028;4.218;2022-12-07T10:12:55;13.30;;;6.45;;
62911;SDS011;49111;51.028;4.218;2022-12-07T10:18:19;7.82;;;5.50;;
62911;SDS011;49111;51.028;4.218;2022-12-07T10:20:59;13.30;;;6.53;;
62911;SDS011;49111;51.028;4.218;2022-12-07T10:29:28;9.70;;;5.68;;
62911;SDS011;49111;51.028;4.218;2022-12-07T10:32:03;10.10;;;5.88;;
62911;SDS011;49111;51.028;4.218;2022-12-07T10:34:36;10.73;;;5.70;;
62911;SDS011;49111;51.028;4.218;2022-12-07T10:39:51;11.07;;;5.60;;
62911;SDS011;49111;51.028;4.218;2022-12-07T10:42:25;8.02;;;5.15;;
62911;SDS011;49111;51.028;4.218;2022-12-07T10:45:13;11.43;;;5.75;;
62911;SDS011;49111;51.028;4.218;2022-12-07T10:47:46;8.40;;;5.07;;
62911;SDS011;49111;51.028;4.218;2022-12-07T11:07:02;11.27;;;5.00;;
62911;SDS011;49111;51.028;4.218;2022-12-07T11:09:39;8.75;;;5.55;;
62911;SDS011;49111;51.028;4.218;2022-12-07T11:15:01;9.35;;;4.40;;
62911;SDS011;49111;51.028;4.218;2022-12-07T11:17:36;7.50;;;4.43;;
62911;SDS011;49111;51.028;4.218;2022-12-07T11:23:20;13.93;;;3.28;;
62911;SDS011;49111;51.028;4.218;2022-12-07T11:37:28;5.20;;;2.40;;
62911;SDS011;49111;51.028;4.218;2022-12-07T11:40:03;6.47;;;2.80;;
62911;SDS011;49111;51.028;4.218;2022-12-07T11:42:41;3.92;;;2.25;;
62911;SDS011;49111;51.028;4.218;2022-12-07T11:52:58;6.72;;;2.20;;
62911;SDS011;49111;51.028;4.218;2022-12-07T11:55:42;4.63;;;2.47;;
62911;SDS011;49111;51.028;4.218;2022-12-07T12:03:45;5.80;;;2.50;;
62911;SDS011;49111;51.028;4.218;2022-12-07T12:06:12;7.68;;;2.20;;
62911;SDS011;49111;51.028;4.218;2022-12-07T12:08:40;5.57;;;2.40;;
62911;SDS011;49111;51.028;4.218;2022-12-07T12:13:54;6.38;;;2.30;;
62911;SDS011;49111;51.028;4.218;2022-12-07T12:22:08;4.63;;;1.92;;
62911;SDS011;49111;51.028;4.218;2022-12-07T12:24:39;4.25;;;2.88;;
62911;SDS011;49111;51.028;4.218;2022-12-07T12:27:08;3.38;;;2.20;;
62911;SDS011;49111;51.028;4.218;2022-12-07T12:29:41;4.72;;;2.15;;
62911;SDS011;49111;51.028;4.218;2022-12-07T12:32:21;5.97;;;2.20;;
62911;SDS011;49111;51.028;4.218;2022-12-07T12:37:54;7.20;;;2.38;;
62911;SDS011;49111;51.028;4.218;2022-12-07T12:42:47;6.07;;;2.10;;
62911;SDS011;49111;51.028;4.218;2022-12-07T12:45:21;4.03;;;1.92;;
62911;SDS011;49111;51.028;4.218;2022-12-07T12:47:54;4.70;;;2.28;;
62911;SDS011;49111;51.028;4.218;2022-12-07T12:50:46;4.05;;;1.88;;
62911;SDS011;49111;51.028;4.218;2022-12-07T12:53:14;7.55;;;2.30;;
62911;SDS011;49111;51.028;4.218;2022-12-07T12:58:36;4.82;;;1.70;;
62911;SDS011;49111;51.028;4.218;2022-12-07T13:04:00;6.63;;;1.98;;
62911;SDS011;49111;51.028;4.218;2022-12-07T13:08:53;5.05;;;1.65;;
62911;SDS011;49111;51.028;4.218;2022-12-07T13:11:31;4.65;;;2.60;;
62911;SDS011;49111;51.028;4.218;2022-12-07T13:17:02;5.35;;;1.92;;
62911;SDS011;49111;51.028;4.218;2022-12-07T13:27:47;5.45;;;2.28;;
62911;SDS011;49111;51.028;4.218;2022-12-07T13:30:21;5.22;;;2.50;;
62911;SDS011;49111;51.028;4.218;2022-12-07T13:32:52;3.53;;;2.88;;
62911;SDS011;49111;51.028;4.218;2022-12-07T13:35:37;4.90;;;2.78;;
62911;SDS011;49111;51.028;4.218;2022-12-07T13:38:05;3.55;;;2.45;;
62911;SDS011;49111;51.028;4.218;2022-12-07T13:40:58;6.07;;;2.40;;
62911;SDS011;49111;51.028;4.218;2022-12-07T13:46:56;3.70;;;2.72;;
62911;SDS011;49111;51.028;4.218;2022-12-07T13:49:44;4.35;;;2.00;;
62911;SDS011;49111;51.028;4.218;2022-12-07T13:52:31;2.47;;;2.10;;
62911;SDS011;49111;51.028;4.218;2022-12-07T13:57:32;3.15;;;2.20;;
62911;SDS011;49111;51.028;4.218;2022-12-07T14:00:00;5.90;;;2.53;;
62911;SDS011;49111;51.028;4.218;2022-12-07T14:02:31;4.43;;;2.40;;
62911;SDS011;49111;51.028;4.218;2022-12-07T14:05:09;4.35;;;2.28;;
62911;SDS011;49111;51.028;4.218;2022-12-07T14:07:53;3.80;;;2.25;;
62911;SDS011;49111;51.028;4.218;2022-12-07T14:10:34;4.30;;;2.25;;
62911;SDS011;49111;51.028;4.218;2022-12-07T14:16:01;2.47;;;1.88;;
62911;SDS011;49111;51.028;4.218;2022-12-07T14:18:30;6.32;;;1.92;;
62911;SDS011;49111;51.028;4.218;2022-12-07T14:21:14;5.20;;;1.90;;
62911;SDS011;49111;51.028;4.218;2022-12-07T14:23:45;2.67;;;1.63;;
62911;SDS011;49111;51.028;4.218;2022-12-07T14:26:27;4.07;;;1.88;;
62911;SDS011;49111;51.028;4.218;2022-12-07T14:28:52;3.75;;;1.55;;
62911;SDS011;49111;51.028;4.218;2022-12-07T14:31:38;1.15;;;1.08;;
62911;SDS011;49111;51.028;4.218;2022-12-07T14:34:04;4.57;;;2.15;;
62911;SDS011;49111;51.028;4.218;2022-12-07T14:36:32;1.48;;;1.30;;
62911;SDS011;49111;51.028;4.218;2022-12-07T14:38:59;2.78;;;1.55;;
62911;SDS011;49111;51.028;4.218;2022-12-07T14:44:24;3.67;;;1.65;;
62911;SDS011;49111;51.028;4.218;2022-12-07T14:46:51;2.45;;;1.80;;
62911;SDS011;49111;51.028;4.218;2022-12-07T14:49:17;4.40;;;2.00;;
62911;SDS011;49111;51.028;4.218;2022-12-07T14:51:46;2.58;;;1.88;;
62911;SDS011;49111;51.028;4.218;2022-12-07T14:54:17;2.97;;;1.50;;
62911;SDS011;49111;51.028;4.218;2022-12-07T14:56:44;3.65;;;1.88;;
62911;SDS011;49111;51.028;4.218;2022-12-07T14:59:15;6.07;;;1.67;;
62911;SDS011;49111;51.028;4.218;2022-12-07T15:01:42;2.60;;;1.13;;
62911;SDS011;49111;51.028;4.218;2022-12-07T15:04:08;4.80;;;1.48;;
62911;SDS011;49111;51.028;4.218;2022-12-07T15:06:34;3.35;;;1.40;;
62911;SDS011;49111;51.028;4.218;2022-12-07T15:09:00;5.95;;;1.50;;
62911;SDS011;49111;51.028;4.218;2022-12-07T15:11:25;2.72;;;1.10;;
62911;SDS011;49111;51.028;4.218;2022-12-07T15:13:51;6.88;;;1.58;;
62911;SDS011;49111;51.028;4.218;2022-12-07T15:16:36;3.10;;;1.08;;
62911;SDS011;49111;51.028;4.218;2022-12-07T15:19:15;1.23;;;1.00;;
62911;SDS011;49111;51.028;4.218;2022-12-07T15:21:48;2.25;;;1.20;;
62911;SDS011;49111;51.028;4.218;2022-12-07T15:24:18;3.17;;;1.25;;
62911;SDS011;49111;51.028;4.218;2022-12-07T15:26:45;2.88;;;1.85;;
62911;SDS011;49111;51.028;4.218;2022-12-07T15:29:11;2.85;;;1.35;;
62911;SDS011;49111;51.028;4.218;2022-12-07T15:31:48;4.15;;;1.35;;
62911;SDS011;49111;51.028;4.218;2022-12-07T15:34:15;1.52;;;1.20;;
62911;SDS011;49111;51.028;4.218;2022-12-07T15:39:45;2.40;;;1.50;;
62911;SDS011;49111;51.028;4.218;2022-12-07T15:42:11;2.20;;;1.30;;
62911;SDS011;49111;51.028;4.218;2022-12-07T15:44:37;3.35;;;1.40;;
62911;SDS011;49111;51.028;4.218;2022-12-07T15:47:21;1.80;;;1.52;;
62911;SDS011;49111;51.028;4.218;2022-12-07T15:49:47;2.20;;;1.10;;
62911;SDS011;49111;51.028;4.218;2022-12-07T15:52:12;2.33;;;1.35;;
62911;SDS011;49111;51.028;4.218;2022-12-07T15:54:39;3.08;;;1.55;;
62911;SDS011;49111;51.028;4.218;2022-12-07T15:57:04;5.38;;;2.13;;
62911;SDS011;49111;51.028;4.218;2022-12-07T15:59:30;5.05;;;1.55;;
62911;SDS011;49111;51.028;4.218;2022-12-07T16:01:56;4.75;;;1.80;;
62911;SDS011;49111;51.028;4.218;2022-12-07T16:04:22;2.45;;;1.45;;
62911;SDS011;49111;51.028;4.218;2022-12-07T16:06:50;2.95;;;1.75;;
62911;SDS011;49111;51.028;4.218;2022-12-07T16:09:16;5.35;;;2.33;;
62911;SDS011;49111;51.028;4.218;2022-12-07T16:11:42;4.72;;;2.28;;
62911;SDS011;49111;51.028;4.218;2022-12-07T16:14:08;5.05;;;2.35;;
62911;SDS011;49111;51.028;4.218;2022-12-07T16:16:34;4.25;;;2.08;;
62911;SDS011;49111;51.028;4.218;2022-12-07T16:18:59;3.63;;;2.00;;
62911;SDS011;49111;51.028;4.218;2022-12-07T16:21:25;4.60;;;1.98;;
62911;SDS011;49111;51.028;4.218;2022-12-07T16:23:52;4.85;;;2.10;;
62911;SDS011;49111;51.028;4.218;2022-12-07T16:26:18;3.63;;;2.22;;
62911;SDS011;49111;51.028;4.218;2022-12-07T16:28:50;3.33;;;1.92;;
62911;SDS011;49111;51.028;4.218;2022-12-07T16:31:20;2.95;;;2.00;;
62911;SDS011;49111;51.028;4.218;2022-12-07T16:33:48;4.55;;;2.40;;
62911;SDS011;49111;51.028;4.218;2022-12-07T16:36:16;6.68;;;2.78;;
62911;SDS011;49111;51.028;4.218;2022-12-07T16:38:42;4.88;;;2.47;;
62911;SDS011;49111;51.028;4.218;2022-12-07T16:41:09;6.38;;;2.97;;
62911;SDS011;49111;51.028;4.218;2022-12-07T16:43:35;7.80;;;3.72;;
62911;SDS011;49111;51.028;4.218;2022-12-07T16:46:02;5.80;;;2.80;;
62911;SDS011;49111;51.028;4.218;2022-12-07T16:48:29;9.88;;;3.55;;
62911;SDS011;49111;51.028;4.218;2022-12-07T16:50:55;7.85;;;3.25;;
62911;SDS011;49111;51.028;4.218;2022-12-07T16:53:21;6.78;;;3.05;;
62911;SDS011;49111;51.028;4.218;2022-12-07T16:55:49;4.40;;;2.58;;
62911;SDS011;49111;51.028;4.218;2022-12-07T16:58:16;8.13;;;3.70;;
62911;SDS011;49111;51.028;4.218;2022-12-07T17:00:43;7.50;;;3.45;;
62911;SDS011;49111;51.028;4.218;2022-12-07T17:03:10;10.57;;;3.30;;
62911;SDS011;49111;51.028;4.218;2022-12-07T17:05:37;5.60;;;3.47;;
62911;SDS011;49111;51.028;4.218;2022-12-07T17:08:04;9.02;;;4.07;;
62911;SDS011;49111;51.028;4.218;2022-12-07T17:10:30;7.22;;;3.53;;
62911;SDS011;49111;51.028;4.218;2022-12-07T17:13:01;6.18;;;3.90;;
62911;SDS011;49111;51.028;4.218;2022-12-07T17:15:27;7.50;;;3.95;;
62911;SDS011;49111;51.028;4.218;2022-12-07T17:17:54;7.90;;;3.80;;
62911;SDS011;49111;51.028;4.218;2022-12-07T17:20:23;7.35;;;4.95;;
62911;SDS011;49111;51.028;4.218;2022-12-07T17:22:51;6.22;;;3.58;;
62911;SDS011;49111;51.028;4.218;2022-12-07T17:25:18;7.03;;;3.55;;
62911;SDS011;49111;51.028;4.218;2022-12-07T17:27:45;6.57;;;4.43;;
62911;SDS011;49111;51.028;4.218;2022-12-07T17:30:13;7.78;;;3.83;;
62911;SDS011;49111;51.028;4.218;2022-12-07T17:32:39;7.75;;;4.55;;
62911;SDS011;49111;51.028;4.218;2022-12-07T17:35:06;8.95;;;5.03;;
62911;SDS011;49111;51.028;4.218;2022-12-07T17:37:32;7.53;;;4.70;;
62911;SDS011;49111;51.028;4.218;2022-12-07T17:39:58;7.85;;;4.40;;
62911;SDS011;49111;51.028;4.218;2022-12-07T17:42:24;7.47;;;4.88;;
62911;SDS011;49111;51.028;4.218;2022-12-07T17:45:09;8.68;;;4.75;;
62911;SDS011;49111;51.028;4.218;2022-12-07T17:47:36;7.25;;;4.32;;
62911;SDS011;49111;51.028;4.218;2022-12-07T17:50:04;7.63;;;5.22;;
62911;SDS011;49111;51.028;4.218;2022-12-07T17:52:31;9.32;;;5.07;;
62911;SDS011;49111;51.028;4.218;2022-12-07T17:55:15;9.48;;;6.65;;
62911;SDS011;49111;51.028;4.218;2022-12-07T17:57:43;9.45;;;5.50;;
62911;SDS011;49111;51.028;4.218;2022-12-07T18:00:09;9.77;;;6.18;;
62911;SDS011;49111;51.028;4.218;2022-12-07T18:02:39;8.43;;;5.68;;
62911;SDS011;49111;51.028;4.218;2022-12-07T18:05:07;9.15;;;5.03;;
62911;SDS011;49111;51.028;4.218;2022-12-07T18:07:36;15.65;;;6.60;;
62911;SDS011;49111;51.028;4.218;2022-12-07T18:10:02;10.27;;;5.60;;
62911;SDS011;49111;51.028;4.218;2022-12-07T18:12:31;9.65;;;6.05;;
62911;SDS011;49111;51.028;4.218;2022-12-07T18:14:57;7.70;;;5.28;;
62911;SDS011;49111;51.028;4.218;2022-12-07T18:17:23;10.23;;;5.85;;
62911;SDS011;49111;51.028;4.218;2022-12-07T18:19:49;9.90;;;5.78;;
62911;SDS011;49111;51.028;4.218;2022-12-07T18:22:14;9.68;;;5.75;;
62911;SDS011;49111;51.028;4.218;2022-12-07T18:24:40;11.55;;;6.18;;
62911;SDS011;49111;51.028;4.218;2022-12-07T18:27:06;11.73;;;7.35;;
62911;SDS011;49111;51.028;4.218;2022-12-07T18:29:32;13.40;;;6.30;;
62911;SDS011;49111;51.028;4.218;2022-12-07T18:31:58;13.95;;;7.85;;
62911;SDS011;49111;51.028;4.218;2022-12-07T18:34:25;11.48;;;7.22;;
62911;SDS011;49111;51.028;4.218;2022-12-07T18:36:53;10.65;;;7.45;;
62911;SDS011;49111;51.028;4.218;2022-12-07T18:39:19;10.98;;;7.00;;
62911;SDS011;49111;51.028;4.218;2022-12-07T18:41:45;10.27;;;6.78;;
62911;SDS011;49111;51.028;4.218;2022-12-07T18:44:11;11.02;;;6.68;;
62911;SDS011;49111;51.028;4.218;2022-12-07T18:46:38;14.52;;;8.65;;
62911;SDS011;49111;51.028;4.218;2022-12-07T18:49:06;11.70;;;7.57;;
62911;SDS011;49111;51.028;4.218;2022-12-07T18:51:33;13.93;;;7.65;;
62911;SDS011;49111;51.028;4.218;2022-12-07T18:53:59;12.95;;;8.23;;
62911;SDS011;49111;51.028;4.218;2022-12-07T18:56:26;15.88;;;8.18;;
62911;SDS011;49111;51.028;4.218;2022-12-07T18:58:58;14.98;;;9.02;;
62911;SDS011;49111;51.028;4.218;2022-12-07T19:01:45;13.30;;;9.13;;
62911;SDS011;49111;51.028;4.218;2022-12-07T19:04:16;14.95;;;8.85;;
62911;SDS011;49111;51.028;4.218;2022-12-07T19:06:44;17.98;;;10.63;;
62911;SDS011;49111;51.028;4.218;2022-12-07T19:09:11;16.27;;;8.85;;
62911;SDS011;49111;51.028;4.218;2022-12-07T19:11:37;15.45;;;9.20;;
62911;SDS011;49111;51.028;4.218;2022-12-07T19:14:21;12.30;;;8.38;;
62911;SDS011;49111;51.028;4.218;2022-12-07T19:16:50;13.93;;;8.73;;
62911;SDS011;49111;51.028;4.218;2022-12-07T19:22:19;12.73;;;9.25;;
62911;SDS011;49111;51.028;4.218;2022-12-07T19:24:50;16.25;;;9.60;;
62911;SDS011;49111;51.028;4.218;2022-12-07T19:27:18;15.05;;;9.68;;
